sensor_id;sensor_type;location;lat;lon;timestamp;temperature;humidity
24450;DHT22;13349;50.984;5.822;2024-02-23T00:00:26;6.30;99.90
24450;DHT22;13349;50.984;5.822;2024-02-23T00:02:54;6.20;99.90
24450;DHT22;13349;50.984;5.822;2024-02-23T00:05:23;6.30;99.90
24450;DHT22;13349;50.984;5.822;2024-02-23T00:07:50;6.20;1.00
24450;DHT22;13349;50.984;5.822;2024-02-23T00:10:17;6.20;1.00
24450;DHT22;13349;50.984;5.822;2024-02-23T00:12:44;6.20;1.00
24450;DHT22;13349;50.984;5.822;2024-02-23T00:15:13;6.10;1.00
24450;DHT22;13349;50.984;5.822;2024-02-23T00:17:39;6.00;1.00
24450;DHT22;13349;50.984;5.822;2024-02-23T00:20:10;6.00;1.00
24450;DHT22;13349;50.984;5.822;2024-02-23T00:22:37;6.00;1.00
24450;DHT22;13349;50.984;5.822;2024-02-23T00:25:04;6.00;99.90
24450;DHT22;13349;50.984;5.822;2024-02-23T00:27:31;5.90;99.90
24450;DHT22;13349;50.984;5.822;2024-02-23T00:29:58;5.80;99.90
24450;DHT22;13349;50.984;5.822;2024-02-23T00:32:25;5.80;99.90
24450;DHT22;13349;50.984;5.822;2024-02-23T00:34:52;5.70;1.00
24450;DHT22;13349;50.984;5.822;2024-02-23T00:37:21;5.70;1.00
24450;DHT22;13349;50.984;5.822;2024-02-23T00:39:48;5.80;1.00
24450;DHT22;13349;50.984;5.822;2024-02-23T00:42:15;5.80;1.00
24450;DHT22;13349;50.984;5.822;2024-02-23T00:44:41;5.80;1.00
24450;DHT22;13349;50.984;5.822;2024-02-23T00:47:09;5.80;1.00
24450;DHT22;13349;50.984;5.822;2024-02-23T00:49:36;5.80;99.90
24450;DHT22;13349;50.984;5.822;2024-02-23T00:52:03;5.80;99.90
24450;DHT22;13349;50.984;5.822;2024-02-23T00:54:31;5.80;1.00
24450;DHT22;13349;50.984;5.822;2024-02-23T00:56:58;5.80;1.00
24450;DHT22;13349;50.984;5.822;2024-02-23T00:59:25;5.90;99.90
24450;DHT22;13349;50.984;5.822;2024-02-23T01:01:52;5.80;99.90
24450;DHT22;13349;50.984;5.822;2024-02-23T01:04:19;5.80;99.90
24450;DHT22;13349;50.984;5.822;2024-02-23T01:06:46;5.80;1.00
24450;DHT22;13349;50.984;5.822;2024-02-23T01:09:13;5.70;1.00
24450;DHT22;13349;50.984;5.822;2024-02-23T01:11:43;5.60;1.00
24450;DHT22;13349;50.984;5.822;2024-02-23T01:14:10;5.60;87.40
24450;DHT22;13349;50.984;5.822;2024-02-23T01:16:37;5.50;99.90
24450;DHT22;13349;50.984;5.822;2024-02-23T01:19:04;5.40;99.90
24450;DHT22;13349;50.984;5.822;2024-02-23T01:21:31;5.40;99.90
24450;DHT22;13349;50.984;5.822;2024-02-23T01:23:58;5.50;99.90
24450;DHT22;13349;50.984;5.822;2024-02-23T01:26:26;5.50;99.90
24450;DHT22;13349;50.984;5.822;2024-02-23T01:28:54;5.40;99.90
24450;DHT22;13349;50.984;5.822;2024-02-23T01:31:22;5.50;99.90
24450;DHT22;13349;50.984;5.822;2024-02-23T01:33:49;5.50;99.90
24450;DHT22;13349;50.984;5.822;2024-02-23T01:36:16;5.60;99.90
24450;DHT22;13349;50.984;5.822;2024-02-23T01:38:44;5.60;1.00
24450;DHT22;13349;50.984;5.822;2024-02-23T01:41:11;5.60;1.00
24450;DHT22;13349;50.984;5.822;2024-02-23T01:43:38;5.50;1.00
24450;DHT22;13349;50.984;5.822;2024-02-23T01:46:06;5.50;99.90
24450;DHT22;13349;50.984;5.822;2024-02-23T01:48:33;5.60;99.90
24450;DHT22;13349;50.984;5.822;2024-02-23T01:51:00;5.50;99.90
24450;DHT22;13349;50.984;5.822;2024-02-23T01:53:27;5.50;34.90
24450;DHT22;13349;50.984;5.822;2024-02-23T01:55:54;5.40;19.80
24450;DHT22;13349;50.984;5.822;2024-02-23T01:58:21;5.40;99.90
24450;DHT22;13349;50.984;5.822;2024-02-23T02:00:48;5.40;99.90
24450;DHT22;13349;50.984;5.822;2024-02-23T02:03:17;5.50;99.90
24450;DHT22;13349;50.984;5.822;2024-02-23T02:05:44;5.50;99.90
24450;DHT22;13349;50.984;5.822;2024-02-23T02:08:11;5.50;99.90
24450;DHT22;13349;50.984;5.822;2024-02-23T02:10:38;5.50;99.90
24450;DHT22;13349;50.984;5.822;2024-02-23T02:13:05;5.60;99.90
24450;DHT22;13349;50.984;5.822;2024-02-23T02:15:32;5.70;1.00
24450;DHT22;13349;50.984;5.822;2024-02-23T02:17:59;5.70;1.00
24450;DHT22;13349;50.984;5.822;2024-02-23T02:20:27;5.70;14.50
24450;DHT22;13349;50.984;5.822;2024-02-23T02:22:54;5.70;99.90
24450;DHT22;13349;50.984;5.822;2024-02-23T02:25:21;5.80;1.00
24450;DHT22;13349;50.984;5.822;2024-02-23T02:27:48;5.80;99.90
24450;DHT22;13349;50.984;5.822;2024-02-23T02:30:15;5.80;99.90
24450;DHT22;13349;50.984;5.822;2024-02-23T02:32:42;5.80;99.90
24450;DHT22;13349;50.984;5.822;2024-02-23T02:35:10;5.80;1.00
24450;DHT22;13349;50.984;5.822;2024-02-23T02:37:39;5.90;1.00
24450;DHT22;13349;50.984;5.822;2024-02-23T02:40:06;5.90;1.00
24450;DHT22;13349;50.984;5.822;2024-02-23T02:42:33;5.90;1.00
24450;DHT22;13349;50.984;5.822;2024-02-23T02:45:00;5.80;1.00
24450;DHT22;13349;50.984;5.822;2024-02-23T02:47:28;5.80;1.00
24450;DHT22;13349;50.984;5.822;2024-02-23T02:49:55;5.80;1.00
24450;DHT22;13349;50.984;5.822;2024-02-23T02:52:22;5.80;1.00
24450;DHT22;13349;50.984;5.822;2024-02-23T02:54:51;5.80;1.00
24450;DHT22;13349;50.984;5.822;2024-02-23T02:57:18;5.80;99.90
24450;DHT22;13349;50.984;5.822;2024-02-23T02:59:45;5.80;99.90
24450;DHT22;13349;50.984;5.822;2024-02-23T03:02:12;5.90;99.90
24450;DHT22;13349;50.984;5.822;2024-02-23T03:04:45;5.90;99.90
24450;DHT22;13349;50.984;5.822;2024-02-23T03:07:13;5.90;1.00
24450;DHT22;13349;50.984;5.822;2024-02-23T03:09:39;5.90;1.00
24450;DHT22;13349;50.984;5.822;2024-02-23T03:12:08;5.90;1.00
24450;DHT22;13349;50.984;5.822;2024-02-23T03:14:35;5.90;1.00
24450;DHT22;13349;50.984;5.822;2024-02-23T03:17:03;5.80;1.00
24450;DHT22;13349;50.984;5.822;2024-02-23T03:19:30;5.80;1.00
24450;DHT22;13349;50.984;5.822;2024-02-23T03:21:58;5.90;1.00
24450;DHT22;13349;50.984;5.822;2024-02-23T03:24:25;5.80;1.00
24450;DHT22;13349;50.984;5.822;2024-02-23T03:26:52;5.80;1.00
24450;DHT22;13349;50.984;5.822;2024-02-23T03:29:20;5.80;1.00
24450;DHT22;13349;50.984;5.822;2024-02-23T03:31:49;5.70;1.00
24450;DHT22;13349;50.984;5.822;2024-02-23T03:34:16;5.80;1.00
24450;DHT22;13349;50.984;5.822;2024-02-23T03:36:43;5.80;1.00
24450;DHT22;13349;50.984;5.822;2024-02-23T03:39:10;5.90;1.00
24450;DHT22;13349;50.984;5.822;2024-02-23T03:41:37;5.90;1.00
24450;DHT22;13349;50.984;5.822;2024-02-23T03:44:04;6.00;1.00
24450;DHT22;13349;50.984;5.822;2024-02-23T03:46:32;5.90;1.00
24450;DHT22;13349;50.984;5.822;2024-02-23T03:49:00;6.00;1.00
24450;DHT22;13349;50.984;5.822;2024-02-23T03:51:27;6.10;99.90
24450;DHT22;13349;50.984;5.822;2024-02-23T03:53:54;6.10;99.90
24450;DHT22;13349;50.984;5.822;2024-02-23T03:56:21;6.10;99.90
24450;DHT22;13349;50.984;5.822;2024-02-23T03:58:48;6.10;99.90
24450;DHT22;13349;50.984;5.822;2024-02-23T04:01:15;6.00;99.90
24450;DHT22;13349;50.984;5.822;2024-02-23T04:03:43;6.10;94.50
24450;DHT22;13349;50.984;5.822;2024-02-23T04:06:10;6.10;1.00
24450;DHT22;13349;50.984;5.822;2024-02-23T04:08:37;6.10;1.00
24450;DHT22;13349;50.984;5.822;2024-02-23T04:11:04;6.10;1.00
24450;DHT22;13349;50.984;5.822;2024-02-23T04:13:31;6.00;1.00
24450;DHT22;13349;50.984;5.822;2024-02-23T04:16:00;6.00;1.00
24450;DHT22;13349;50.984;5.822;2024-02-23T04:18:27;6.00;1.00
24450;DHT22;13349;50.984;5.822;2024-02-23T04:20:55;6.00;1.00
24450;DHT22;13349;50.984;5.822;2024-02-23T04:23:22;6.10;1.00
24450;DHT22;13349;50.984;5.822;2024-02-23T04:25:49;6.10;1.00
24450;DHT22;13349;50.984;5.822;2024-02-23T04:28:17;6.10;1.00
24450;DHT22;13349;50.984;5.822;2024-02-23T04:30:44;6.10;1.00
24450;DHT22;13349;50.984;5.822;2024-02-23T04:33:11;6.20;1.00
24450;DHT22;13349;50.984;5.822;2024-02-23T04:35:38;6.20;1.00
24450;DHT22;13349;50.984;5.822;2024-02-23T04:38:06;6.20;1.00
24450;DHT22;13349;50.984;5.822;2024-02-23T04:40:33;6.20;99.90
24450;DHT22;13349;50.984;5.822;2024-02-23T04:43:01;6.30;99.90
24450;DHT22;13349;50.984;5.822;2024-02-23T04:45:28;6.30;99.90
24450;DHT22;13349;50.984;5.822;2024-02-23T04:47:55;6.20;99.90
24450;DHT22;13349;50.984;5.822;2024-02-23T04:50:22;6.20;99.90
24450;DHT22;13349;50.984;5.822;2024-02-23T04:52:49;6.20;99.90
24450;DHT22;13349;50.984;5.822;2024-02-23T04:55:18;6.20;99.90
24450;DHT22;13349;50.984;5.822;2024-02-23T04:57:45;6.10;99.90
24450;DHT22;13349;50.984;5.822;2024-02-23T05:00:12;6.10;99.90
24450;DHT22;13349;50.984;5.822;2024-02-23T05:02:39;6.10;99.90
24450;DHT22;13349;50.984;5.822;2024-02-23T05:05:06;6.10;99.90
24450;DHT22;13349;50.984;5.822;2024-02-23T05:07:33;6.10;99.90
24450;DHT22;13349;50.984;5.822;2024-02-23T05:10:00;6.20;99.90
24450;DHT22;13349;50.984;5.822;2024-02-23T05:12:29;6.20;99.90
24450;DHT22;13349;50.984;5.822;2024-02-23T05:14:55;6.30;15.20
24450;DHT22;13349;50.984;5.822;2024-02-23T05:17:22;6.30;51.60
24450;DHT22;13349;50.984;5.822;2024-02-23T05:19:49;6.20;97.70
24450;DHT22;13349;50.984;5.822;2024-02-23T05:22:16;6.30;1.00
24450;DHT22;13349;50.984;5.822;2024-02-23T05:24:44;6.20;13.60
24450;DHT22;13349;50.984;5.822;2024-02-23T05:27:11;6.20;24.50
24450;DHT22;13349;50.984;5.822;2024-02-23T05:29:39;6.20;10.10
24450;DHT22;13349;50.984;5.822;2024-02-23T05:32:06;6.20;1.00
24450;DHT22;13349;50.984;5.822;2024-02-23T05:34:33;6.30;1.00
24450;DHT22;13349;50.984;5.822;2024-02-23T05:37:01;6.30;1.00
24450;DHT22;13349;50.984;5.822;2024-02-23T05:39:28;6.40;1.00
24450;DHT22;13349;50.984;5.822;2024-02-23T05:41:55;6.30;1.00
24450;DHT22;13349;50.984;5.822;2024-02-23T05:44:24;6.30;1.00
24450;DHT22;13349;50.984;5.822;2024-02-23T05:46:53;6.30;1.00
24450;DHT22;13349;50.984;5.822;2024-02-23T05:49:20;6.30;1.00
24450;DHT22;13349;50.984;5.822;2024-02-23T05:51:47;6.30;1.00
24450;DHT22;13349;50.984;5.822;2024-02-23T05:54:14;6.20;1.00
24450;DHT22;13349;50.984;5.822;2024-02-23T05:56:41;6.20;1.00
24450;DHT22;13349;50.984;5.822;2024-02-23T05:59:08;6.20;1.00
24450;DHT22;13349;50.984;5.822;2024-02-23T06:01:35;6.20;1.00
24450;DHT22;13349;50.984;5.822;2024-02-23T06:04:03;6.20;1.00
24450;DHT22;13349;50.984;5.822;2024-02-23T06:06:31;6.30;1.00
24450;DHT22;13349;50.984;5.822;2024-02-23T06:08:58;6.20;1.00
24450;DHT22;13349;50.984;5.822;2024-02-23T06:11:25;6.20;1.00
24450;DHT22;13349;50.984;5.822;2024-02-23T06:13:53;6.20;1.00
24450;DHT22;13349;50.984;5.822;2024-02-23T06:16:20;6.20;1.00
24450;DHT22;13349;50.984;5.822;2024-02-23T06:18:47;6.30;1.00
24450;DHT22;13349;50.984;5.822;2024-02-23T06:21:17;6.30;1.00
24450;DHT22;13349;50.984;5.822;2024-02-23T06:23:44;6.30;1.00
24450;DHT22;13349;50.984;5.822;2024-02-23T06:26:12;6.30;1.00
24450;DHT22;13349;50.984;5.822;2024-02-23T06:28:39;6.20;1.00
24450;DHT22;13349;50.984;5.822;2024-02-23T06:31:07;6.30;1.00
24450;DHT22;13349;50.984;5.822;2024-02-23T06:33:34;6.30;1.00
24450;DHT22;13349;50.984;5.822;2024-02-23T06:36:01;6.30;1.00
24450;DHT22;13349;50.984;5.822;2024-02-23T06:38:30;6.40;1.00
24450;DHT22;13349;50.984;5.822;2024-02-23T06:40:57;6.30;1.00
24450;DHT22;13349;50.984;5.822;2024-02-23T06:43:24;6.40;1.00
24450;DHT22;13349;50.984;5.822;2024-02-23T06:45:51;6.30;1.00
24450;DHT22;13349;50.984;5.822;2024-02-23T06:48:18;6.30;1.00
24450;DHT22;13349;50.984;5.822;2024-02-23T06:50:45;6.30;1.00
24450;DHT22;13349;50.984;5.822;2024-02-23T06:53:12;6.20;1.00
24450;DHT22;13349;50.984;5.822;2024-02-23T06:55:41;6.20;1.00
24450;DHT22;13349;50.984;5.822;2024-02-23T06:58:08;6.30;1.00
24450;DHT22;13349;50.984;5.822;2024-02-23T07:00:37;6.20;1.00
24450;DHT22;13349;50.984;5.822;2024-02-23T07:03:04;6.20;1.00
24450;DHT22;13349;50.984;5.822;2024-02-23T07:05:31;6.30;1.00
24450;DHT22;13349;50.984;5.822;2024-02-23T07:08:00;6.20;1.00
24450;DHT22;13349;50.984;5.822;2024-02-23T07:10:28;6.10;99.10
24450;DHT22;13349;50.984;5.822;2024-02-23T07:12:56;6.10;99.90
24450;DHT22;13349;50.984;5.822;2024-02-23T07:15:23;6.10;99.90
24450;DHT22;13349;50.984;5.822;2024-02-23T07:17:51;6.00;1.00
24450;DHT22;13349;50.984;5.822;2024-02-23T07:20:18;6.10;1.00
24450;DHT22;13349;50.984;5.822;2024-02-23T07:22:45;6.10;1.00
24450;DHT22;13349;50.984;5.822;2024-02-23T07:25:15;6.10;1.00
24450;DHT22;13349;50.984;5.822;2024-02-23T07:27:42;6.00;1.00
24450;DHT22;13349;50.984;5.822;2024-02-23T07:30:12;6.00;1.00
24450;DHT22;13349;50.984;5.822;2024-02-23T07:32:39;6.10;1.00
24450;DHT22;13349;50.984;5.822;2024-02-23T07:35:06;6.00;1.00
24450;DHT22;13349;50.984;5.822;2024-02-23T07:37:33;6.00;1.00
24450;DHT22;13349;50.984;5.822;2024-02-23T07:40:00;6.10;1.00
24450;DHT22;13349;50.984;5.822;2024-02-23T07:42:28;6.10;1.00
24450;DHT22;13349;50.984;5.822;2024-02-23T07:44:55;6.20;1.00
24450;DHT22;13349;50.984;5.822;2024-02-23T07:47:24;6.20;1.00
24450;DHT22;13349;50.984;5.822;2024-02-23T07:49:54;6.30;1.00
24450;DHT22;13349;50.984;5.822;2024-02-23T07:52:20;6.30;1.00
24450;DHT22;13349;50.984;5.822;2024-02-23T07:54:49;6.40;1.00
24450;DHT22;13349;50.984;5.822;2024-02-23T07:57:17;6.50;1.00
24450;DHT22;13349;50.984;5.822;2024-02-23T07:59:44;6.70;1.00
24450;DHT22;13349;50.984;5.822;2024-02-23T08:02:11;6.90;1.00
24450;DHT22;13349;50.984;5.822;2024-02-23T08:04:39;7.00;99.90
24450;DHT22;13349;50.984;5.822;2024-02-23T08:07:07;7.10;99.90
24450;DHT22;13349;50.984;5.822;2024-02-23T08:09:34;7.60;99.90
24450;DHT22;13349;50.984;5.822;2024-02-23T08:12:01;7.40;1.00
24450;DHT22;13349;50.984;5.822;2024-02-23T08:14:28;7.00;1.00
24450;DHT22;13349;50.984;5.822;2024-02-23T08:16:55;6.80;38.20
24450;DHT22;13349;50.984;5.822;2024-02-23T08:19:22;6.90;78.60
24450;DHT22;13349;50.984;5.822;2024-02-23T08:21:50;7.10;99.90
24450;DHT22;13349;50.984;5.822;2024-02-23T08:24:17;6.90;1.00
24450;DHT22;13349;50.984;5.822;2024-02-23T08:26:44;7.00;1.00
24450;DHT22;13349;50.984;5.822;2024-02-23T08:29:11;7.10;1.00
24450;DHT22;13349;50.984;5.822;2024-02-23T08:31:38;7.10;1.00
24450;DHT22;13349;50.984;5.822;2024-02-23T08:34:05;7.30;1.00
24450;DHT22;13349;50.984;5.822;2024-02-23T08:36:32;7.20;1.00
24450;DHT22;13349;50.984;5.822;2024-02-23T08:39:00;7.30;1.00
24450;DHT22;13349;50.984;5.822;2024-02-23T08:41:28;7.40;1.00
24450;DHT22;13349;50.984;5.822;2024-02-23T08:43:55;7.20;1.00
24450;DHT22;13349;50.984;5.822;2024-02-23T08:46:22;7.20;1.00
24450;DHT22;13349;50.984;5.822;2024-02-23T08:48:49;7.50;1.00
24450;DHT22;13349;50.984;5.822;2024-02-23T08:51:16;7.50;99.90
24450;DHT22;13349;50.984;5.822;2024-02-23T08:53:43;7.70;99.90
24450;DHT22;13349;50.984;5.822;2024-02-23T08:56:12;7.70;99.90
24450;DHT22;13349;50.984;5.822;2024-02-23T08:58:41;7.80;99.90
24450;DHT22;13349;50.984;5.822;2024-02-23T09:01:07;7.70;98.40
24450;DHT22;13349;50.984;5.822;2024-02-23T09:03:35;7.80;1.70
24450;DHT22;13349;50.984;5.822;2024-02-23T09:06:02;8.10;1.00
24450;DHT22;13349;50.984;5.822;2024-02-23T09:08:29;8.30;1.00
24450;DHT22;13349;50.984;5.822;2024-02-23T09:10:56;8.40;1.00
24450;DHT22;13349;50.984;5.822;2024-02-23T09:13:25;8.40;1.00
24450;DHT22;13349;50.984;5.822;2024-02-23T09:15:55;8.50;1.00
24450;DHT22;13349;50.984;5.822;2024-02-23T09:18:22;8.50;1.00
24450;DHT22;13349;50.984;5.822;2024-02-23T09:20:48;8.40;99.90
24450;DHT22;13349;50.984;5.822;2024-02-23T09:23:15;8.50;1.00
24450;DHT22;13349;50.984;5.822;2024-02-23T09:25:43;8.40;99.90
24450;DHT22;13349;50.984;5.822;2024-02-23T09:28:10;8.40;1.00
24450;DHT22;13349;50.984;5.822;2024-02-23T09:30:39;8.40;99.90
24450;DHT22;13349;50.984;5.822;2024-02-23T09:33:06;8.20;99.90
24450;DHT22;13349;50.984;5.822;2024-02-23T09:35:33;8.00;99.90
24450;DHT22;13349;50.984;5.822;2024-02-23T09:38:00;7.80;99.90
24450;DHT22;13349;50.984;5.822;2024-02-23T09:40:28;7.80;99.90
24450;DHT22;13349;50.984;5.822;2024-02-23T09:42:55;7.80;99.90
24450;DHT22;13349;50.984;5.822;2024-02-23T09:45:23;7.90;99.90
24450;DHT22;13349;50.984;5.822;2024-02-23T09:47:52;8.00;99.90
24450;DHT22;13349;50.984;5.822;2024-02-23T09:50:19;8.00;99.90
24450;DHT22;13349;50.984;5.822;2024-02-23T09:52:47;8.30;99.90
24450;DHT22;13349;50.984;5.822;2024-02-23T09:55:15;8.60;99.90
24450;DHT22;13349;50.984;5.822;2024-02-23T09:57:43;8.60;99.90
24450;DHT22;13349;50.984;5.822;2024-02-23T10:00:10;8.40;89.60
24450;DHT22;13349;50.984;5.822;2024-02-23T10:02:37;8.60;99.90
24450;DHT22;13349;50.984;5.822;2024-02-23T10:05:07;8.80;23.90
24450;DHT22;13349;50.984;5.822;2024-02-23T10:07:37;8.60;56.20
24450;DHT22;13349;50.984;5.822;2024-02-23T10:10:06;8.50;1.00
24450;DHT22;13349;50.984;5.822;2024-02-23T10:12:33;8.70;1.00
24450;DHT22;13349;50.984;5.822;2024-02-23T10:15:00;8.70;1.00
24450;DHT22;13349;50.984;5.822;2024-02-23T10:17:29;8.60;1.00
24450;DHT22;13349;50.984;5.822;2024-02-23T10:19:56;9.10;1.00
24450;DHT22;13349;50.984;5.822;2024-02-23T10:22:25;9.10;1.00
24450;DHT22;13349;50.984;5.822;2024-02-23T10:24:53;9.30;1.00
24450;DHT22;13349;50.984;5.822;2024-02-23T10:27:20;9.10;1.00
24450;DHT22;13349;50.984;5.822;2024-02-23T10:29:49;9.20;1.00
24450;DHT22;13349;50.984;5.822;2024-02-23T10:32:16;9.30;1.00
24450;DHT22;13349;50.984;5.822;2024-02-23T10:34:44;9.00;1.00
24450;DHT22;13349;50.984;5.822;2024-02-23T10:37:14;9.40;1.00
24450;DHT22;13349;50.984;5.822;2024-02-23T10:39:42;9.50;1.00
24450;DHT22;13349;50.984;5.822;2024-02-23T10:42:09;9.70;1.00
24450;DHT22;13349;50.984;5.822;2024-02-23T10:44:37;9.00;1.00
24450;DHT22;13349;50.984;5.822;2024-02-23T10:47:05;9.10;1.00
24450;DHT22;13349;50.984;5.822;2024-02-23T10:49:33;9.20;1.00
24450;DHT22;13349;50.984;5.822;2024-02-23T10:52:01;9.20;1.00
24450;DHT22;13349;50.984;5.822;2024-02-23T10:54:28;9.10;1.00
24450;DHT22;13349;50.984;5.822;2024-02-23T10:56:59;9.40;1.00
24450;DHT22;13349;50.984;5.822;2024-02-23T10:59:26;9.20;1.00
24450;DHT22;13349;50.984;5.822;2024-02-23T11:01:54;9.00;1.00
24450;DHT22;13349;50.984;5.822;2024-02-23T11:04:23;9.20;1.00
24450;DHT22;13349;50.984;5.822;2024-02-23T11:06:50;8.80;1.00
24450;DHT22;13349;50.984;5.822;2024-02-23T11:09:20;8.70;1.00
24450;DHT22;13349;50.984;5.822;2024-02-23T11:11:51;8.70;1.00
24450;DHT22;13349;50.984;5.822;2024-02-23T11:14:28;8.80;1.00
24450;DHT22;13349;50.984;5.822;2024-02-23T11:16:55;8.60;1.00
24450;DHT22;13349;50.984;5.822;2024-02-23T11:19:22;8.60;1.00
24450;DHT22;13349;50.984;5.822;2024-02-23T11:21:58;8.70;1.00
24450;DHT22;13349;50.984;5.822;2024-02-23T11:24:25;8.80;1.00
24450;DHT22;13349;50.984;5.822;2024-02-23T11:26:56;8.70;1.00
24450;DHT22;13349;50.984;5.822;2024-02-23T11:29:25;8.80;1.00
24450;DHT22;13349;50.984;5.822;2024-02-23T11:31:52;8.80;1.00
24450;DHT22;13349;50.984;5.822;2024-02-23T11:34:22;8.50;1.00
24450;DHT22;13349;50.984;5.822;2024-02-23T11:36:50;8.40;1.00
24450;DHT22;13349;50.984;5.822;2024-02-23T11:39:17;8.50;1.00
24450;DHT22;13349;50.984;5.822;2024-02-23T11:41:47;8.30;1.00
24450;DHT22;13349;50.984;5.822;2024-02-23T11:44:15;8.30;1.00
24450;DHT22;13349;50.984;5.822;2024-02-23T11:46:44;8.30;1.00
24450;DHT22;13349;50.984;5.822;2024-02-23T11:49:12;8.40;1.00
24450;DHT22;13349;50.984;5.822;2024-02-23T11:51:39;8.50;1.00
24450;DHT22;13349;50.984;5.822;2024-02-23T11:54:06;8.90;1.00
24450;DHT22;13349;50.984;5.822;2024-02-23T11:56:33;9.00;1.00
24450;DHT22;13349;50.984;5.822;2024-02-23T11:59:00;9.10;1.00
24450;DHT22;13349;50.984;5.822;2024-02-23T12:01:28;9.10;1.00
24450;DHT22;13349;50.984;5.822;2024-02-23T12:03:57;9.30;1.00
24450;DHT22;13349;50.984;5.822;2024-02-23T12:06:24;9.70;1.00
24450;DHT22;13349;50.984;5.822;2024-02-23T12:08:54;9.70;1.00
24450;DHT22;13349;50.984;5.822;2024-02-23T12:11:21;9.50;1.00
24450;DHT22;13349;50.984;5.822;2024-02-23T12:13:48;10.30;1.00
24450;DHT22;13349;50.984;5.822;2024-02-23T12:16:16;10.50;1.00
24450;DHT22;13349;50.984;5.822;2024-02-23T12:18:43;10.50;1.00
24450;DHT22;13349;50.984;5.822;2024-02-23T12:21:12;10.60;1.00
24450;DHT22;13349;50.984;5.822;2024-02-23T12:23:42;10.20;1.00
24450;DHT22;13349;50.984;5.822;2024-02-23T12:26:09;10.20;1.00
24450;DHT22;13349;50.984;5.822;2024-02-23T12:28:37;9.80;1.00
24450;DHT22;13349;50.984;5.822;2024-02-23T12:31:04;9.70;1.00
24450;DHT22;13349;50.984;5.822;2024-02-23T12:33:31;10.20;1.00
24450;DHT22;13349;50.984;5.822;2024-02-23T12:35:58;10.30;1.00
24450;DHT22;13349;50.984;5.822;2024-02-23T12:38:26;10.90;1.00
24450;DHT22;13349;50.984;5.822;2024-02-23T12:40:53;10.80;1.00
24450;DHT22;13349;50.984;5.822;2024-02-23T12:43:21;10.40;99.90
24450;DHT22;13349;50.984;5.822;2024-02-23T12:45:49;10.10;99.90
24450;DHT22;13349;50.984;5.822;2024-02-23T12:48:16;10.10;99.90
24450;DHT22;13349;50.984;5.822;2024-02-23T12:50:43;10.10;99.90
24450;DHT22;13349;50.984;5.822;2024-02-23T12:53:11;9.90;99.90
24450;DHT22;13349;50.984;5.822;2024-02-23T12:55:59;9.70;99.90
24450;DHT22;13349;50.984;5.822;2024-02-23T12:58:26;10.00;99.90
24450;DHT22;13349;50.984;5.822;2024-02-23T13:00:53;9.90;99.90
24450;DHT22;13349;50.984;5.822;2024-02-23T13:03:20;9.90;99.90
24450;DHT22;13349;50.984;5.822;2024-02-23T13:05:47;10.00;1.00
24450;DHT22;13349;50.984;5.822;2024-02-23T13:08:14;10.00;99.90
24450;DHT22;13349;50.984;5.822;2024-02-23T13:10:41;9.70;99.90
24450;DHT22;13349;50.984;5.822;2024-02-23T13:13:09;10.00;1.00
24450;DHT22;13349;50.984;5.822;2024-02-23T13:15:36;10.20;99.90
24450;DHT22;13349;50.984;5.822;2024-02-23T13:18:04;10.70;99.90
24450;DHT22;13349;50.984;5.822;2024-02-23T13:20:31;10.60;99.90
24450;DHT22;13349;50.984;5.822;2024-02-23T13:22:58;10.40;99.90
24450;DHT22;13349;50.984;5.822;2024-02-23T13:25:25;10.40;99.90
24450;DHT22;13349;50.984;5.822;2024-02-23T13:27:52;10.50;99.90
24450;DHT22;13349;50.984;5.822;2024-02-23T13:30:20;10.70;99.90
24450;DHT22;13349;50.984;5.822;2024-02-23T13:32:47;10.50;99.90
24450;DHT22;13349;50.984;5.822;2024-02-23T13:35:14;10.50;99.90
24450;DHT22;13349;50.984;5.822;2024-02-23T13:37:42;10.10;99.90
24450;DHT22;13349;50.984;5.822;2024-02-23T13:40:09;10.30;99.90
24450;DHT22;13349;50.984;5.822;2024-02-23T13:42:37;10.40;99.90
24450;DHT22;13349;50.984;5.822;2024-02-23T13:45:05;9.80;99.90
24450;DHT22;13349;50.984;5.822;2024-02-23T13:47:34;10.00;1.00
24450;DHT22;13349;50.984;5.822;2024-02-23T13:50:01;9.90;1.00
24450;DHT22;13349;50.984;5.822;2024-02-23T13:52:28;9.80;1.00
24450;DHT22;13349;50.984;5.822;2024-02-23T13:54:56;9.80;1.00
24450;DHT22;13349;50.984;5.822;2024-02-23T13:57:23;9.70;1.00
24450;DHT22;13349;50.984;5.822;2024-02-23T13:59:50;9.30;1.00
24450;DHT22;13349;50.984;5.822;2024-02-23T14:02:23;9.40;1.00
24450;DHT22;13349;50.984;5.822;2024-02-23T14:04:52;9.50;1.00
24450;DHT22;13349;50.984;5.822;2024-02-23T14:07:20;9.70;1.00
24450;DHT22;13349;50.984;5.822;2024-02-23T14:09:47;9.80;1.00
24450;DHT22;13349;50.984;5.822;2024-02-23T14:12:14;9.60;1.00
24450;DHT22;13349;50.984;5.822;2024-02-23T14:14:41;9.50;1.00
24450;DHT22;13349;50.984;5.822;2024-02-23T14:17:08;9.50;1.00
24450;DHT22;13349;50.984;5.822;2024-02-23T14:19:35;9.40;1.00
24450;DHT22;13349;50.984;5.822;2024-02-23T14:22:03;9.30;1.00
24450;DHT22;13349;50.984;5.822;2024-02-23T14:24:30;9.20;1.00
24450;DHT22;13349;50.984;5.822;2024-02-23T14:26:57;9.40;1.00
24450;DHT22;13349;50.984;5.822;2024-02-23T14:29:24;9.30;1.00
24450;DHT22;13349;50.984;5.822;2024-02-23T14:31:51;9.20;1.00
24450;DHT22;13349;50.984;5.822;2024-02-23T14:34:18;9.20;1.00
24450;DHT22;13349;50.984;5.822;2024-02-23T14:36:49;9.20;1.00
24450;DHT22;13349;50.984;5.822;2024-02-23T14:39:21;9.10;1.00
24450;DHT22;13349;50.984;5.822;2024-02-23T14:41:48;9.10;1.00
24450;DHT22;13349;50.984;5.822;2024-02-23T14:44:15;9.10;1.00
24450;DHT22;13349;50.984;5.822;2024-02-23T14:46:42;9.20;1.00
24450;DHT22;13349;50.984;5.822;2024-02-23T14:49:09;9.10;1.00
24450;DHT22;13349;50.984;5.822;2024-02-23T14:51:37;9.20;1.00
24450;DHT22;13349;50.984;5.822;2024-02-23T14:54:05;9.10;1.00
24450;DHT22;13349;50.984;5.822;2024-02-23T14:56:33;9.40;1.00
24450;DHT22;13349;50.984;5.822;2024-02-23T14:59:00;9.50;1.00
24450;DHT22;13349;50.984;5.822;2024-02-23T15:01:27;9.40;1.00
24450;DHT22;13349;50.984;5.822;2024-02-23T15:03:54;9.30;1.00
24450;DHT22;13349;50.984;5.822;2024-02-23T15:06:21;9.10;1.00
24450;DHT22;13349;50.984;5.822;2024-02-23T15:08:49;9.20;1.00
24450;DHT22;13349;50.984;5.822;2024-02-23T15:11:16;9.20;1.00
24450;DHT22;13349;50.984;5.822;2024-02-23T15:13:45;9.10;1.00
24450;DHT22;13349;50.984;5.822;2024-02-23T15:16:11;9.10;1.00
24450;DHT22;13349;50.984;5.822;2024-02-23T15:18:38;9.10;1.00
24450;DHT22;13349;50.984;5.822;2024-02-23T15:21:06;9.10;1.00
24450;DHT22;13349;50.984;5.822;2024-02-23T15:23:33;9.00;1.00
24450;DHT22;13349;50.984;5.822;2024-02-23T15:26:00;8.90;1.00
24450;DHT22;13349;50.984;5.822;2024-02-23T15:28:27;8.90;1.00
24450;DHT22;13349;50.984;5.822;2024-02-23T15:30:56;9.00;1.00
24450;DHT22;13349;50.984;5.822;2024-02-23T15:33:23;8.90;1.00
24450;DHT22;13349;50.984;5.822;2024-02-23T15:35:50;8.80;1.00
24450;DHT22;13349;50.984;5.822;2024-02-23T15:38:17;8.80;1.00
24450;DHT22;13349;50.984;5.822;2024-02-23T15:40:44;8.80;1.00
24450;DHT22;13349;50.984;5.822;2024-02-23T15:43:11;8.90;1.00
24450;DHT22;13349;50.984;5.822;2024-02-23T15:45:38;8.90;1.00
24450;DHT22;13349;50.984;5.822;2024-02-23T15:48:06;8.90;1.00
24450;DHT22;13349;50.984;5.822;2024-02-23T15:50:34;8.90;1.00
24450;DHT22;13349;50.984;5.822;2024-02-23T15:53:01;8.90;1.00
24450;DHT22;13349;50.984;5.822;2024-02-23T15:55:30;8.90;1.00